Time;durP1;ratioP1;P1;durP2;ratioP2;P2;SDS_P1;SDS_P2;PMS_P1;PMS_P2;Temp;Humidity;BMP_temperature;BMP_pressure;BME280_temperature;BME280_humidity;BME280_pressure;Samples;Min_cycle;Max_cycle;Signal;HPM_P1;HPM_P2
2021/04/10 00:00:29;;;;;;;2.42;1.50;;;;;;;8.51;67.15;98423.25;5030528;28;20450;-75
2021/04/10 00:02:55;;;;;;;1.50;1.40;;;;;;;8.50;67.28;98427.88;5030634;28;20029;-75
2021/04/10 00:05:25;;;;;;;2.90;1.60;;;;;;;8.55;67.74;98416.97;5030413;28;20053;-76
2021/04/10 00:07:50;;;;;;;1.60;1.23;;;;;;;8.63;67.52;98421.09;5030580;28;20055;-77
2021/04/10 00:10:17;;;;;;;2.38;1.40;;;;;;;8.63;67.81;98423.00;5030661;28;20482;-76
2021/04/10 00:12:43;;;;;;;2.38;1.80;;;;;;;8.67;67.85;98415.91;5030747;28;20029;-78
2021/04/10 00:15:12;;;;;;;3.85;1.50;;;;;;;8.61;68.23;98415.09;5029732;28;20022;-75
2021/04/10 00:17:37;;;;;;;2.22;1.52;;;;;;;8.59;68.17;98409.91;5029874;28;20473;-76
2021/04/10 00:20:12;;;;;;;2.97;1.67;;;;;;;8.53;68.79;98397.34;5029990;28;20057;-76
2021/04/10 00:22:38;;;;;;;2.95;1.52;;;;;;;8.60;68.57;98402.53;5012158;28;20026;-75
2021/04/10 00:25:05;;;;;;;3.03;1.58;;;;;;;8.63;68.50;98382.09;5029874;28;20026;-76
2021/04/10 00:27:31;;;;;;;2.00;1.70;;;;;;;8.64;68.70;98395.47;5030250;28;20018;-75
2021/04/10 00:29:56;;;;;;;2.63;1.85;;;;;;;8.61;69.18;98390.56;5030426;28;20430;-77
2021/04/10 00:32:21;;;;;;;1.52;1.42;;;;;;;8.61;69.25;98396.81;5030347;28;20037;-76
2021/04/10 00:34:47;;;;;;;3.67;1.67;;;;;;;8.61;69.39;98394.06;5012583;28;20026;-75
2021/04/10 00:37:12;;;;;;;5.93;2.17;;;;;;;8.56;69.66;98399.53;5030485;28;20168;-75
2021/04/10 00:39:38;;;;;;;2.40;1.70;;;;;;;8.55;69.31;98397.88;5030258;28;20533;-76
2021/04/10 00:42:03;;;;;;;4.28;1.75;;;;;;;8.50;69.82;98392.44;5030754;28;20438;-76
2021/04/10 00:44:29;;;;;;;3.25;1.80;;;;;;;8.45;70.09;98394.34;5029952;28;20120;-76
2021/04/10 00:46:54;;;;;;;3.55;1.50;;;;;;;8.39;69.79;98390.81;5016405;28;20108;-75
2021/04/10 00:49:19;;;;;;;2.20;1.73;;;;;;;8.32;70.41;98392.97;5034892;28;20044;-75
2021/04/10 00:51:45;;;;;;;4.07;1.98;;;;;;;8.25;70.80;98388.81;5035555;28;20479;-76
2021/04/10 00:54:11;;;;;;;9.60;2.45;;;;;;;8.23;71.11;98382.84;5040315;28;20072;-75
2021/04/10 00:56:36;;;;;;;8.50;1.58;;;;;;;8.14;71.26;98379.81;5018750;28;20087;-76
2021/04/10 00:59:02;;;;;;;;;;;;;;;8.07;71.51;98381.97;5034951;28;20033;-75
2021/04/10 01:01:27;;;;;;;5.95;1.48;;;;;;;8.02;71.84;98379.22;5034339;28;19920;-75
2021/04/10 01:03:53;;;;;;;2.78;1.25;;;;;;;8.04;72.13;98386.06;5034258;28;20037;-76
2021/04/10 01:06:18;;;;;;;3.85;1.88;;;;;;;7.99;72.31;98385.22;5016323;28;20121;-76
2021/04/10 01:08:43;;;;;;;4.70;2.25;;;;;;;7.85;72.67;98365.03;5016131;28;20406;-75
2021/04/10 01:11:27;;;;;;;3.10;1.80;;;;;;;7.90;72.57;98379.47;5033932;28;20580;-74
2021/04/10 01:14:01;;;;;;;4.18;1.73;;;;;;;7.85;72.91;98389.53;5034411;28;20072;-75
2021/04/10 01:16:43;;;;;;;1.95;1.63;;;;;;;7.83;73.10;98380.81;5016206;28;20029;-75
2021/04/10 01:19:26;;;;;;;3.70;1.58;;;;;;;7.79;73.57;98379.72;5034074;28;20033;-75
2021/04/10 01:21:54;;;;;;;2.10;1.70;;;;;;;7.82;73.46;98380.00;5015942;28;20032;-75
2021/04/10 01:24:40;;;;;;;3.95;1.48;;;;;;;7.78;73.40;98378.06;5033779;28;20036;-75
2021/04/10 01:27:26;;;;;;;3.17;1.85;;;;;;;7.72;73.63;98370.97;5033685;28;20110;-76
2021/04/10 01:29:59;;;;;;;1.60;1.50;;;;;;;7.67;73.70;98379.13;5033695;28;20113;-75
2021/04/10 01:32:31;;;;;;;3.08;2.03;;;;;;;7.59;74.24;98376.91;5033487;28;20041;-75
2021/04/10 01:35:12;;;;;;;2.53;1.35;;;;;;;7.53;74.38;98379.59;5033339;28;20026;-75
2021/04/10 01:37:58;;;;;;;6.40;1.95;;;;;;;7.51;74.54;98384.50;5015732;28;20489;-76
2021/04/10 01:40:26;;;;;;;1.80;1.60;;;;;;;7.53;74.50;98379.59;5033923;28;20033;-75
2021/04/10 01:42:53;;;;;;;3.20;1.70;;;;;;;7.53;74.01;98376.06;5015845;28;20054;-75
2021/04/10 01:45:20;;;;;;;1.27;1.17;;;;;;;7.52;74.12;98371.69;5033590;28;20022;-76
2021/04/10 01:47:47;;;;;;;8.43;1.90;;;;;;;7.56;73.98;98378.25;5015470;28;20394;-77
2021/04/10 01:50:13;;;;;;;2.03;1.33;;;;;;;7.52;73.94;98386.13;5032468;28;20512;-76
2021/04/10 01:52:41;;;;;;;1.50;1.40;;;;;;;7.53;73.82;98378.78;5014223;28;20033;-76
2021/04/10 01:55:09;;;;;;;5.68;1.48;;;;;;;7.56;73.90;98375.53;5030717;28;20025;-78
2021/04/10 01:57:36;;;;;;;3.35;1.15;;;;;;;7.52;73.74;98377.94;5031543;28;20028;-75
2021/04/10 02:00:05;;;;;;;4.22;1.80;;;;;;;7.48;74.07;98379.59;5031882;28;20032;-75
2021/04/10 02:02:34;;;;;;;5.00;1.83;;;;;;;7.41;74.25;98368.13;5031790;28;20108;-76
2021/04/10 02:05:00;;;;;;;3.47;1.75;;;;;;;7.43;74.29;98367.84;5031546;28;20038;-76
2021/04/10 02:07:26;;;;;;;6.53;1.83;;;;;;;7.44;74.23;98370.31;5031861;28;20400;-77
2021/04/10 02:09:53;;;;;;;1.90;1.55;;;;;;;7.32;74.69;98364.25;5013831;28;20113;-77
2021/04/10 02:12:22;;;;;;;5.47;1.95;;;;;;;7.29;74.91;98366.69;5032316;28;20029;-76
2021/04/10 02:14:48;;;;;;;2.97;1.60;;;;;;;7.26;74.86;98362.59;5031834;28;20026;-76
2021/04/10 02:17:17;;;;;;;1.92;1.50;;;;;;;7.26;75.32;98361.78;5013878;28;20128;-76
2021/04/10 02:19:44;;;;;;;4.07;1.80;;;;;;;7.21;74.98;98356.28;5031688;28;20028;-75
2021/04/10 02:22:11;;;;;;;2.38;1.48;;;;;;;7.17;75.55;98364.19;5031493;28;20075;-75
2021/04/10 02:24:37;;;;;;;4.22;1.85;;;;;;;7.16;75.62;98362.53;5029006;28;20436;-74
2021/04/10 02:27:02;;;;;;;3.83;1.27;;;;;;;7.10;75.92;98357.31;5024576;28;20029;-75
2021/04/10 02:29:30;;;;;;;2.28;1.63;;;;;;;7.15;75.77;98351.91;5030278;28;20026;-75
2021/04/10 02:32:01;;;;;;;3.47;1.58;;;;;;;7.10;75.88;98354.59;5024277;28;20029;-75
2021/04/10 02:34:30;;;;;;;3.92;1.58;;;;;;;7.12;76.03;98355.16;4993424;28;20552;-75
2021/04/10 02:36:58;;;;;;;3.00;1.60;;;;;;;7.02;76.55;98344.25;5020567;28;20025;-75
2021/04/10 02:39:25;;;;;;;4.28;1.58;;;;;;;6.99;76.58;98343.66;5037064;28;20029;-75
2021/04/10 02:41:53;;;;;;;4.10;1.52;;;;;;;7.06;76.51;98335.28;5035824;28;20033;-76
2021/04/10 02:44:24;;;;;;;2.70;1.42;;;;;;;7.02;76.78;98341.53;5013764;28;20041;-74
2021/04/10 02:46:55;;;;;;;1.85;1.48;;;;;;;7.01;76.66;98335.25;5013303;28;20025;-74
2021/04/10 02:49:26;;;;;;;5.30;2.03;;;;;;;6.96;76.91;98330.59;4986163;28;971998;-77
2021/04/10 02:51:58;;;;;;;2.25;1.67;;;;;;;7.03;77.13;98330.34;4994610;28;20042;-77
2021/04/10 02:54:31;;;;;;;4.03;1.38;;;;;;;7.04;77.01;98332.00;5012667;28;20060;-75
2021/04/10 02:57:11;;;;;;;3.80;2.33;;;;;;;7.13;76.76;98335.03;5009719;28;20509;-76
2021/04/10 02:59:49;;;;;;;3.03;1.63;;;;;;;7.09;76.90;98329.31;5011851;28;20037;-76
2021/04/10 03:02:16;;;;;;;1.92;1.40;;;;;;;7.07;76.83;98328.75;5011893;28;20026;-76
2021/04/10 03:04:44;;;;;;;3.22;1.73;;;;;;;7.05;77.17;98322.75;5012152;28;20026;-75
2021/04/10 03:07:10;;;;;;;4.63;1.92;;;;;;;7.00;77.12;98336.31;5011859;28;20064;-75
2021/04/10 03:09:42;;;;;;;3.95;1.55;;;;;;;6.93;77.47;98330.28;5010896;28;20044;-75
2021/04/10 03:12:11;;;;;;;4.28;2.15;;;;;;;6.85;77.76;98328.06;5011817;28;20429;-75
2021/04/10 03:14:37;;;;;;;4.03;1.73;;;;;;;6.79;78.07;98327.22;5011762;28;20570;-75
2021/04/10 03:17:02;;;;;;;4.35;2.13;;;;;;;6.72;78.37;98326.63;5011667;28;20037;-76
2021/04/10 03:19:30;;;;;;;2.45;1.80;;;;;;;6.73;78.73;98325.56;5011532;28;20061;-76
2021/04/10 03:21:55;;;;;;;2.28;1.75;;;;;;;6.67;78.25;98325.78;4993912;28;20037;-75
2021/04/10 03:24:21;;;;;;;3.20;2.13;;;;;;;6.62;78.73;98328.44;5011420;28;20022;-75
2021/04/10 03:26:46;;;;;;;6.20;1.45;;;;;;;6.56;79.03;98324.06;5029353;28;20029;-75
2021/04/10 03:29:12;;;;;;;2.22;1.40;;;;;;;6.52;79.20;98328.38;5030797;28;20121;-74
2021/04/10 03:31:38;;;;;;;6.22;1.77;;;;;;;6.43;79.66;98328.84;5013276;28;20042;-75
2021/04/10 03:34:04;;;;;;;1.73;1.63;;;;;;;6.40;79.67;98329.38;5031094;28;20482;-75
2021/04/10 03:36:31;;;;;;;4.15;1.52;;;;;;;6.43;79.76;98320.72;5030799;28;20060;-75
2021/04/10 03:38:57;;;;;;;2.70;1.67;;;;;;;6.45;79.92;98325.91;5013355;28;20068;-75
2021/04/10 03:41:22;;;;;;;4.53;1.95;;;;;;;6.41;80.01;98322.03;5031025;28;20034;-77
2021/04/10 03:43:48;;;;;;;6.50;1.70;;;;;;;6.36;80.32;98328.25;5013369;28;20088;-75
2021/04/10 03:46:13;;;;;;;2.88;2.22;;;;;;;6.26;80.37;98317.31;5030885;28;20030;-76
2021/04/10 03:48:39;;;;;;;7.20;2.55;;;;;;;6.17;80.89;98328.91;5030816;28;20029;-75
2021/04/10 03:51:04;;;;;;;;;;;;;;;6.15;81.21;98325.63;5031153;28;20069;-76
2021/04/10 03:53:30;;;;;;;3.80;1.50;;;;;;;6.22;81.19;98318.91;5012835;28;19917;-77
2021/04/10 03:55:55;;;;;;;3.47;2.72;;;;;;;6.27;80.96;98328.97;5030919;28;20441;-75
2021/04/10 03:58:20;;;;;;;;;;;;;;;6.32;80.88;98318.16;5030982;28;20029;-75
2021/04/10 04:00:46;;;;;;;6.43;1.65;;;;;;;6.33;81.10;98315.19;5030669;28;19982;-76
2021/04/10 04:03:12;;;;;;;2.47;1.60;;;;;;;6.32;81.03;98313.56;5012890;28;20460;-75
2021/04/10 04:05:37;;;;;;;3.05;1.60;;;;;;;6.33;80.71;98308.94;5030871;28;20029;-74
2021/04/10 04:08:03;;;;;;;5.32;1.85;;;;;;;6.40;80.75;98314.97;5012892;28;20390;-76
2021/04/10 04:10:28;;;;;;;4.43;2.15;;;;;;;6.38;80.88;98317.97;5030645;28;20064;-75
2021/04/10 04:12:54;;;;;;;;;;;;;;;6.44;80.92;98316.91;5031377;28;20044;-75
2021/04/10 04:15:19;;;;;;;2.08;1.45;;;;;;;6.46;80.44;98325.63;5030468;28;19988;-75
2021/04/10 04:17:45;;;;;;;5.78;2.35;;;;;;;6.46;80.46;98316.66;5030487;28;20029;-76
2021/04/10 04:20:11;;;;;;;5.07;2.05;;;;;;;6.49;80.04;98316.13;5012516;28;20033;-75
2021/04/10 04:22:36;;;;;;;;;;;;;;;6.55;80.09;98317.00;5030623;28;20029;-76
2021/04/10 04:25:02;;;;;;;4.55;2.13;;;;;;;6.54;79.52;98316.19;5026147;28;19928;-76
2021/04/10 04:27:27;;;;;;;3.17;2.42;;;;;;;6.59;79.73;98309.94;4992420;28;20391;-75
2021/04/10 04:29:54;;;;;;;2.65;1.70;;;;;;;6.63;79.65;98309.19;5010419;28;20030;-74
2021/04/10 04:32:21;;;;;;;6.00;1.60;;;;;;;6.78;79.36;98319.31;5010570;28;20038;-76
2021/04/10 04:34:47;;;;;;;5.25;2.25;;;;;;;6.89;78.64;98313.69;5010684;28;20037;-75
2021/04/10 04:37:12;;;;;;;5.35;1.40;;;;;;;6.98;78.16;98309.38;5010558;28;20025;-76
2021/04/10 04:39:38;;;;;;;3.10;1.92;;;;;;;7.11;77.84;98310.81;5010582;28;20367;-75
2021/04/10 04:42:03;;;;;;;;;;;;;;;7.13;77.56;98314.09;5010788;28;20033;-74
2021/04/10 04:44:28;;;;;;;4.03;1.77;;;;;;;7.18;77.59;98316.84;5010748;28;19924;-75
2021/04/10 04:46:55;;;;;;;2.47;1.38;;;;;;;7.27;77.26;98323.41;5010671;28;20030;-75
2021/04/10 04:49:21;;;;;;;3.30;2.28;;;;;;;7.31;76.69;98316.38;5010855;28;20049;-74
2021/04/10 04:51:46;;;;;;;8.35;1.77;;;;;;;7.37;76.58;98315.31;5010750;28;20479;-74
2021/04/10 04:54:12;;;;;;;3.60;1.60;;;;;;;7.43;76.23;98314.22;5017213;28;20041;-75
2021/04/10 04:56:38;;;;;;;3.58;2.03;;;;;;;7.53;76.24;98317.00;5031939;28;20029;-75
2021/04/10 04:59:03;;;;;;;1.58;1.20;;;;;;;7.61;75.97;98321.13;5014229;28;20026;-75
2021/04/10 05:01:28;;;;;;;2.70;1.58;;;;;;;7.62;75.63;98319.19;5030877;28;20494;-77
2021/04/10 05:03:54;;;;;;;3.33;1.73;;;;;;;7.77;75.24;98324.72;5030206;28;20421;-76
2021/04/10 05:06:19;;;;;;;5.20;1.88;;;;;;;7.74;75.19;98314.31;5029986;28;20056;-76
2021/04/10 05:08:45;;;;;;;4.47;1.08;;;;;;;7.78;75.25;98323.59;5029738;28;20029;-76
2021/04/10 05:11:10;;;;;;;2.70;1.25;;;;;;;7.82;75.08;98328.25;5029819;28;20040;-75
2021/04/10 05:13:35;;;;;;;6.25;1.50;;;;;;;7.84;74.89;98323.34;5030475;28;20075;-74
2021/04/10 05:16:01;;;;;;;2.72;1.52;;;;;;;7.75;75.25;98326.88;5030116;28;20032;-75
2021/04/10 05:18:26;;;;;;;4.07;1.50;;;;;;;7.79;75.22;98339.69;5012432;28;20359;-75
2021/04/10 05:20:52;;;;;;;3.53;1.45;;;;;;;7.84;74.88;98326.06;5029927;28;20583;-75
2021/04/10 05:23:24;;;;;;;5.10;1.65;;;;;;;7.87;74.76;98335.59;5029988;28;20045;-75
2021/04/10 05:25:50;;;;;;;1.90;1.35;;;;;;;7.89;75.04;98341.63;5028458;28;20032;-75
2021/04/10 05:28:16;;;;;;;3.50;1.17;;;;;;;7.88;74.71;98334.53;5017717;28;20048;-74
2021/04/10 05:30:42;;;;;;;5.20;2.42;;;;;;;7.92;74.78;98335.63;5030131;28;20022;-75
2021/04/10 05:33:08;;;;;;;4.07;1.58;;;;;;;7.84;74.86;98345.13;5022190;28;20085;-76
2021/04/10 05:35:34;;;;;;;9.07;2.35;;;;;;;7.96;74.44;98339.44;5013739;28;20041;-75
2021/04/10 05:37:59;;;;;;;7.53;1.58;;;;;;;7.98;74.01;98340.84;5013825;28;20029;-76
2021/04/10 05:40:24;;;;;;;3.70;1.23;;;;;;;8.04;73.95;98344.38;5013490;28;20132;-75
2021/04/10 05:42:50;;;;;;;1.73;1.33;;;;;;;8.09;73.64;98344.38;5013657;28;20026;-75
2021/04/10 05:45:15;;;;;;;5.07;1.67;;;;;;;8.14;73.35;98347.13;5023932;28;20069;-75
2021/04/10 05:47:41;;;;;;;4.45;2.60;;;;;;;8.28;72.50;98348.25;5033026;28;20096;-76
2021/04/10 05:50:07;;;;;;;1.70;1.35;;;;;;;8.32;72.59;98354.00;5032941;28;20042;-75
2021/04/10 05:52:34;;;;;;;3.50;1.30;;;;;;;8.48;72.19;98347.47;5032920;28;20559;-75
2021/04/10 05:55:00;;;;;;;1.88;1.60;;;;;;;8.68;71.47;98343.94;5032758;28;20037;-75
2021/04/10 05:57:25;;;;;;;1.55;1.23;;;;;;;8.91;70.75;98351.53;5015147;28;20040;-75
2021/04/10 05:59:51;;;;;;;3.72;1.15;;;;;;;9.04;69.97;98351.78;5035136;28;20112;-81
2021/04/10 06:02:16;;;;;;;5.78;1.42;;;;;;;9.12;69.58;98353.13;5032836;28;20025;-83
2021/04/10 06:04:42;;;;;;;8.73;1.95;;;;;;;9.19;69.65;98350.94;5032812;28;20030;-79
2021/04/10 06:07:07;;;;;;;2.45;1.58;;;;;;;9.07;69.71;98342.22;5015247;28;20045;-82
2021/04/10 06:09:32;;;;;;;6.22;1.85;;;;;;;8.96;69.80;98337.88;5033400;28;20037;-80
2021/04/10 06:12:01;;;;;;;8.38;2.22;;;;;;;9.21;69.31;98342.50;5014148;28;20037;-76
2021/04/10 06:14:26;;;;;;;5.50;1.70;;;;;;;9.42;68.54;98347.59;5029209;28;20036;-77
2021/04/10 06:16:52;;;;;;;7.93;2.00;;;;;;;9.86;67.39;98330.47;5031443;28;20382;-82
2021/04/10 06:19:18;;;;;;;5.60;2.90;;;;;;;10.23;65.43;98344.50;5031353;28;20467;-78
2021/04/10 06:21:44;;;;;;;3.25;1.50;;;;;;;10.38;65.04;98341.66;5028468;28;20076;-78
2021/04/10 06:24:10;;;;;;;6.68;2.20;;;;;;;10.31;64.67;98338.41;5031071;28;20025;-82
2021/04/10 06:26:36;;;;;;;3.80;1.58;;;;;;;10.34;64.71;98343.31;5013484;28;20415;-79
2021/04/10 06:29:02;;;;;;;5.20;1.83;;;;;;;10.51;64.35;98338.28;5013956;28;20083;-79
2021/04/10 06:31:27;;;;;;;6.45;2.03;;;;;;;10.37;64.10;98339.22;5031007;28;20434;-80
2021/04/10 06:33:52;;;;;;;1.70;1.50;;;;;;;10.22;64.80;98340.13;5030999;28;20610;-81
2021/04/10 06:36:18;;;;;;;4.72;2.10;;;;;;;10.03;65.40;98342.66;5030920;28;20028;-76
2021/04/10 06:38:43;;;;;;;7.22;1.33;;;;;;;10.07;65.44;98342.94;5031475;28;20428;-78
2021/04/10 06:41:13;;;;;;;7.05;1.88;;;;;;;10.08;65.74;98350.03;5031445;28;20028;-82
2021/04/10 06:43:42;;;;;;;5.15;1.70;;;;;;;9.97;66.14;98351.19;4995838;28;20040;-81
2021/04/10 06:46:09;;;;;;;5.60;2.25;;;;;;;10.03;66.37;98347.31;5028269;28;20579;-79
2021/04/10 06:48:39;;;;;;;10.40;2.42;;;;;;;10.17;65.91;98353.84;5030667;28;20025;-80
2021/04/10 06:51:08;;;;;;;5.15;1.50;;;;;;;10.27;65.30;98358.44;5019683;28;20402;-82
2021/04/10 06:53:41;;;;;;;4.60;1.52;;;;;;;10.21;65.79;98354.91;5026673;28;20033;-83
2021/04/10 06:56:09;;;;;;;3.65;1.55;;;;;;;10.30;65.80;98355.13;5031148;28;20144;-83
2021/04/10 06:58:49;;;;;;;7.03;2.08;;;;;;;10.50;65.32;98353.06;5032321;28;20022;-77
2021/04/10 07:01:17;;;;;;;7.13;3.05;;;;;;;10.35;65.32;98344.97;5030981;28;20839;-79
2021/04/10 07:03:42;;;;;;;3.28;2.03;;;;;;;10.66;65.44;98359.22;5030180;28;20029;-77
2021/04/10 07:06:10;;;;;;;5.72;2.22;;;;;;;10.59;65.37;98362.28;5030622;28;20023;-80
2021/04/10 07:08:36;;;;;;;3.65;1.95;;;;;;;10.84;64.95;98355.00;5030388;28;20029;-78
2021/04/10 07:11:03;;;;;;;7.65;3.08;;;;;;;10.85;64.72;98351.13;5030908;28;20088;-79
2021/04/10 07:13:28;;;;;;;4.13;1.63;;;;;;;11.11;64.11;98358.00;5016213;28;20029;-78
2021/04/10 07:15:54;;;;;;;1.80;1.30;;;;;;;10.93;64.77;98365.00;5038444;28;20036;-74
2021/04/10 07:18:27;;;;;;;3.40;2.00;;;;;;;11.00;64.74;98367.41;5032932;28;20087;-77
2021/04/10 07:21:14;;;;;;;4.80;2.13;;;;;;;11.25;64.35;98370.72;5028177;28;20056;-74
2021/04/10 07:23:48;;;;;;;2.20;1.20;;;;;;;11.02;64.60;98373.44;5031087;28;20029;-75
2021/04/10 07:26:15;;;;;;;3.30;1.77;;;;;;;11.29;64.01;98373.69;5031324;28;20483;-75
2021/04/10 07:28:40;;;;;;;6.47;2.85;;;;;;;11.25;64.11;98367.16;5030849;28;20036;-75
2021/04/10 07:31:08;;;;;;;4.93;2.38;;;;;;;10.99;65.03;98387.69;5014435;28;20025;-75
2021/04/10 07:33:42;;;;;;;2.80;1.20;;;;;;;11.04;65.06;98379.44;5031480;28;20029;-75
2021/04/10 07:36:15;;;;;;;4.47;1.50;;;;;;;11.00;64.72;98384.66;5027791;28;20032;-74
2021/04/10 07:38:44;;;;;;;8.20;1.73;;;;;;;11.11;64.42;98386.22;5027974;28;20029;-74
2021/04/10 07:41:12;;;;;;;2.95;2.17;;;;;;;11.13;64.01;98381.25;5030108;28;20027;-75
2021/04/10 07:43:40;;;;;;;6.90;2.55;;;;;;;11.21;63.68;98374.34;5012120;28;20026;-75
2021/04/10 07:46:12;;;;;;;2.90;1.42;;;;;;;11.39;63.13;98384.56;5029311;28;20048;-74
2021/04/10 07:48:39;;;;;;;5.43;2.88;;;;;;;11.48;62.41;98384.72;5029703;28;20044;-75
2021/04/10 07:51:14;;;;;;;3.45;2.20;;;;;;;11.36;62.52;98393.34;5029001;28;20045;-74
2021/04/10 07:53:39;;;;;;;12.80;2.30;;;;;;;11.74;61.61;98386.13;5029193;28;20014;-75
2021/04/10 07:56:05;;;;;;;4.22;1.73;;;;;;;12.11;60.54;98382.63;5029212;28;20028;-76
2021/04/10 07:58:35;;;;;;;4.18;1.85;;;;;;;12.05;60.27;98384.63;5029510;28;20068;-76
2021/04/10 08:01:11;;;;;;;4.00;1.50;;;;;;;12.46;59.42;98389.56;5026613;28;20034;-75
2021/04/10 08:03:47;;;;;;;3.85;1.85;;;;;;;12.71;58.00;98387.25;5024677;28;20087;-75
2021/04/10 08:06:15;;;;;;;4.18;1.95;;;;;;;13.16;56.03;98385.69;5011349;28;20029;-75
2021/04/10 08:08:51;;;;;;;4.63;2.63;;;;;;;14.53;52.70;98392.03;5029170;28;20096;-76
2021/04/10 08:11:28;;;;;;;3.67;1.90;;;;;;;13.93;52.79;98385.88;5028703;28;21275;-75
2021/04/10 08:14:01;;;;;;;8.98;1.67;;;;;;;14.04;52.28;98397.47;5029358;28;20025;-76
2021/04/10 08:16:26;;;;;;;2.92;1.60;;;;;;;13.67;53.57;98391.06;5025748;28;20116;-75
2021/04/10 08:18:57;;;;;;;5.82;2.35;;;;;;;13.56;55.07;98397.91;5012113;28;20124;-75
2021/04/10 08:21:28;;;;;;;7.35;1.63;;;;;;;13.84;54.32;98393.22;5027406;28;20492;-75
2021/04/10 08:23:56;;;;;;;3.58;1.42;;;;;;;13.75;54.05;98386.81;5029856;28;20458;-75
2021/04/10 08:26:23;;;;;;;3.40;1.80;;;;;;;13.82;53.50;98395.44;5009767;28;20490;-74
2021/04/10 08:28:49;;;;;;;11.38;2.35;;;;;;;13.75;52.99;98390.34;5030191;28;20033;-74
2021/04/10 08:31:15;;;;;;;3.95;1.33;;;;;;;13.94;52.47;98399.31;5030257;28;20437;-74
2021/04/10 08:33:41;;;;;;;2.60;1.50;;;;;;;13.93;51.58;98386.72;5030211;28;20025;-75
2021/04/10 08:36:11;;;;;;;4.60;1.02;;;;;;;14.14;51.39;98386.25;5030060;28;20060;-75
2021/04/10 08:38:39;;;;;;;4.93;1.90;;;;;;;14.48;49.84;98386.63;5029482;28;20026;-75
2021/04/10 08:41:09;;;;;;;3.40;1.70;;;;;;;15.47;46.80;98386.41;5029450;28;20029;-74
2021/04/10 08:43:42;;;;;;;2.22;1.20;;;;;;;15.55;46.34;98388.41;5029506;28;20048;-73
2021/04/10 08:46:10;;;;;;;5.15;1.40;;;;;;;15.94;44.75;98393.91;5029339;28;20478;-74
2021/04/10 08:48:36;;;;;;;3.03;1.90;;;;;;;16.00;44.22;98378.88;5029482;28;20363;-74
2021/04/10 08:51:07;;;;;;;4.05;1.42;;;;;;;16.47;42.39;98379.13;5029194;28;20505;-74
2021/04/10 08:53:36;;;;;;;4.85;1.42;;;;;;;16.33;39.20;98370.97;5029408;28;20038;-73
2021/04/10 08:56:09;;;;;;;2.80;1.13;;;;;;;15.89;39.90;98379.47;5029278;28;20065;-74
2021/04/10 08:58:37;;;;;;;2.70;1.30;;;;;;;16.18;39.07;98385.25;5029649;28;20521;-74
2021/04/10 09:01:06;;;;;;;2.67;1.20;;;;;;;16.10;37.67;98385.22;5026919;28;20060;-74
2021/04/10 09:03:50;;;;;;;2.33;1.17;;;;;;;16.10;36.79;98393.50;5025932;28;20108;-75
2021/04/10 09:06:33;;;;;;;2.28;1.05;;;;;;;16.64;34.29;98387.44;5026511;28;20111;-75
2021/04/10 09:09:11;;;;;;;1.90;1.35;;;;;;;16.67;32.12;98386.78;5028612;28;20044;-74
2021/04/10 09:11:40;;;;;;;1.05;0.90;;;;;;;16.78;31.23;98387.31;5029903;28;20083;-75
2021/04/10 09:14:06;;;;;;;1.27;0.60;;;;;;;17.07;30.49;98381.94;5031688;28;20488;-74
2021/04/10 09:16:38;;;;;;;1.85;0.80;;;;;;;17.39;29.95;98391.59;5031198;28;20017;-75
2021/04/10 09:19:03;;;;;;;0.95;0.70;;;;;;;16.31;29.83;98375.19;5032369;28;20037;-75
2021/04/10 09:21:42;;;;;;;22.00;1.42;;;;;;;17.40;28.17;98384.94;5032910;28;20030;-75
2021/04/10 09:24:23;;;;;;;5.88;1.20;;;;;;;17.40;29.09;98393.25;5030531;28;20037;-74
2021/04/10 09:26:56;;;;;;;2.15;1.20;;;;;;;16.72;29.69;98383.91;5032835;28;20030;-85
2021/04/10 09:29:22;;;;;;;1.92;0.82;;;;;;;17.03;29.23;98380.94;5015490;28;20061;-76
2021/04/10 09:31:53;;;;;;;3.40;1.17;;;;;;;16.32;29.50;98388.66;5033268;28;20524;-74
2021/04/10 09:34:58;;;;;;;1.15;0.80;;;;;;;16.07;28.09;98384.72;5038662;28;20029;-81
2021/04/10 09:37:24;;;;;;;2.17;1.20;;;;;;;16.23;27.92;98381.50;5031662;28;20072;-73
2021/04/10 09:40:22;;;;;;;3.03;1.40;;;;;;;16.28;27.73;98378.59;5032448;28;20030;-71
2021/04/10 09:42:49;;;;;;;1.40;0.77;;;;;;;15.85;27.78;98387.56;5013091;28;20033;-73
2021/04/10 09:45:31;;;;;;;3.03;1.00;;;;;;;15.85;26.79;98379.28;5020208;28;20030;-72
2021/04/10 09:47:59;;;;;;;2.53;0.82;;;;;;;15.80;27.46;98387.72;5032026;28;20032;-72
2021/04/10 09:50:33;;;;;;;1.38;0.70;;;;;;;15.86;26.83;98372.63;5031301;28;20037;-72
2021/04/10 09:53:04;;;;;;;0.50;0.50;;;;;;;15.61;26.65;98373.34;5031953;28;20104;-73
2021/04/10 09:55:38;;;;;;;4.65;2.03;;;;;;;15.51;27.46;98376.38;5030766;28;20071;-74
2021/04/10 09:58:07;;;;;;;1.58;0.88;;;;;;;15.72;27.50;98373.91;5030934;28;20025;-74
2021/04/10 10:00:39;;;;;;;1.30;0.70;;;;;;;15.78;27.02;98376.19;5030837;28;20546;-74
2021/04/10 10:03:06;;;;;;;2.00;0.85;;;;;;;15.44;26.51;98374.03;5012973;28;20033;-75
2021/04/10 10:05:37;;;;;;;1.50;0.75;;;;;;;15.04;26.52;98380.59;5029995;28;20018;-73
2021/04/10 10:08:08;;;;;;;1.50;1.40;;;;;;;14.91;27.52;98367.75;5029981;28;20029;-75
2021/04/10 10:10:35;;;;;;;3.65;1.23;;;;;;;15.05;27.88;98378.66;5028833;28;20112;-74
2021/04/10 10:13:33;;;;;;;0.93;0.82;;;;;;;14.81;27.97;98370.72;5028640;28;20033;-74
2021/04/10 10:15:59;;;;;;;3.25;1.42;;;;;;;15.14;28.78;98377.59;5026490;28;20122;-74
2021/04/10 10:18:27;;;;;;;0.82;0.63;;;;;;;15.43;27.69;98364.16;5028967;28;20469;-76
2021/04/10 10:20:52;;;;;;;1.35;0.77;;;;;;;15.53;27.60;98368.63;5030816;28;20056;-83
2021/04/10 10:23:18;;;;;;;4.53;1.20;;;;;;;15.73;27.06;98358.94;5019076;28;20033;-86
2021/04/10 10:25:46;;;;;;;1.92;1.15;;;;;;;15.76;25.38;98363.81;5034889;28;20033;-85
2021/04/10 10:28:13;;;;;;;3.35;0.82;;;;;;;16.64;24.53;98359.81;5018432;28;20037;-85
2021/04/10 10:30:39;;;;;;;0.88;0.57;;;;;;;16.52;24.72;98352.16;5014236;28;20025;-84
2021/04/10 10:33:06;;;;;;;2.00;1.02;;;;;;;16.28;25.71;98354.56;5031759;28;20033;-82
2021/04/10 10:35:32;;;;;;;3.28;1.30;;;;;;;15.63;26.86;98351.00;5032548;28;20108;-85
2021/04/10 10:38:03;;;;;;;1.17;0.60;;;;;;;16.00;27.13;98343.00;5032306;28;20026;-83
2021/04/10 10:40:29;;;;;;;1.17;0.70;;;;;;;18.10;24.17;98346.44;5031202;28;20033;-81
2021/04/10 10:43:05;;;;;;;1.13;0.88;;;;;;;19.92;22.26;98349.19;5032302;28;20379;-81
2021/04/10 10:45:48;;;;;;;1.98;0.80;;;;;;;19.00;22.31;98352.28;5029974;28;20029;-82
2021/04/10 10:48:21;;;;;;;1.23;0.77;;;;;;;17.63;23.69;98344.88;5012715;28;20037;-82
2021/04/10 10:51:04;;;;;;;2.22;0.93;;;;;;;18.10;23.98;98340.91;5028649;28;20457;-83
2021/04/10 10:53:38;;;;;;;3.00;0.80;;;;;;;18.48;23.96;98340.00;5027468;28;20072;-82
2021/04/10 10:56:05;;;;;;;2.35;0.60;;;;;;;18.12;25.07;98335.84;5030105;28;20036;-81
2021/04/10 10:58:39;;;;;;;0.90;0.90;;;;;;;18.39;25.74;98339.22;5030496;28;20028;-82
2021/04/10 11:01:13;;;;;;;1.48;1.00;;;;;;;18.06;27.43;98328.88;5029887;28;20466;-83
2021/04/10 11:03:44;;;;;;;2.67;1.38;;;;;;;17.38;28.46;98318.91;5036451;28;20053;-84
2021/04/10 11:06:14;;;;;;;1.60;1.00;;;;;;;17.96;28.07;98332.00;5034799;28;20029;-85
2021/04/10 11:08:40;;;;;;;1.08;0.90;;;;;;;17.81;27.98;98329.81;5034971;28;20482;-82
2021/04/10 11:11:05;;;;;;;1.58;1.20;;;;;;;16.81;30.06;98315.63;5032881;28;20037;-84
2021/04/10 11:13:32;;;;;;;3.70;0.73;;;;;;;16.89;29.57;98313.97;5032056;28;20061;-83
2021/04/10 11:15:58;;;;;;;5.53;1.30;;;;;;;17.47;28.58;98303.09;5032112;28;20033;-84
2021/04/10 11:18:33;;;;;;;2.65;1.10;;;;;;;17.31;29.07;98306.72;5031453;28;20075;-81
2021/04/10 11:21:22;;;;;;;1.23;0.95;;;;;;;17.89;27.76;98308.75;5007885;28;20030;-82
2021/04/10 11:23:56;;;;;;;1.80;1.10;;;;;;;18.21;27.58;98308.06;5031259;28;20029;-81
2021/04/10 11:26:34;;;;;;;1.33;0.88;;;;;;;17.86;28.35;98295.59;5013636;28;20516;-81
2021/04/10 11:29:16;;;;;;;1.98;0.88;;;;;;;17.99;27.85;98311.97;5032144;28;20030;-81
2021/04/10 11:32:03;;;;;;;2.10;0.80;;;;;;;17.39;29.62;98303.09;5033931;28;20449;-82
2021/04/10 11:34:35;;;;;;;1.30;1.00;;;;;;;16.92;28.85;98292.03;5016044;28;20033;-82
2021/04/10 11:37:02;;;;;;;15.25;3.70;;;;;;;16.99;29.42;98283.22;5034401;28;20020;-82
2021/04/10 11:39:29;;;;;;;5.03;1.35;;;;;;;16.66;29.70;98288.50;5033656;28;20042;-85
2021/04/10 11:41:55;;;;;;;2.05;0.80;;;;;;;16.61;29.95;98288.66;5038327;28;20105;-82
2021/04/10 11:44:22;;;;;;;2.72;1.10;;;;;;;16.96;29.89;98290.22;5037919;28;20077;-86
2021/04/10 11:46:57;;;;;;;3.28;0.80;;;;;;;16.60;30.59;98292.56;5034843;28;20363;-84